createdAt,value
2018-02-14T00:01:52.220Z,2.90
2018-02-14T00:04:19.391Z,4.83
2018-02-14T00:06:45.928Z,3.63
2018-02-14T00:09:13.040Z,4.20
2018-02-14T00:11:40.215Z,4.37
2018-02-14T00:14:07.187Z,6.10
2018-02-14T00:16:33.628Z,4.07
2018-02-14T00:19:00.029Z,6.40
2018-02-14T00:21:26.538Z,5.00
2018-02-14T00:23:52.972Z,3.72
2018-02-14T00:26:19.388Z,3.67
2018-02-14T00:28:46.131Z,4.40
2018-02-14T00:31:12.610Z,6.30
2018-02-14T00:33:39.086Z,5.60
2018-02-14T00:36:05.581Z,3.15
2018-02-14T00:38:32.059Z,3.22
2018-02-14T00:40:58.498Z,3.72
2018-02-14T00:43:24.961Z,3.10
2018-02-14T00:45:52.169Z,3.72
2018-02-14T00:48:19.415Z,4.70
2018-02-14T00:50:46.214Z,4.37
2018-02-14T00:53:13.354Z,3.62
2018-02-14T00:55:40.543Z,3.25
2018-02-14T00:58:07.262Z,6.80
2018-02-14T01:00:33.837Z,3.08
2018-02-14T01:03:00.285Z,6.65
2018-02-14T01:05:27.223Z,5.62
2018-02-14T01:07:53.682Z,6.53
2018-02-14T01:10:20.322Z,2.10
2018-02-14T01:12:46.849Z,4.95
2018-02-14T01:15:13.312Z,5.10
2018-02-14T01:17:39.754Z,3.70
2018-02-14T01:20:08.173Z,3.33
2018-02-14T01:22:35.338Z,2.87
2018-02-14T01:25:01.769Z,4.20
2018-02-14T01:27:28.234Z,5.32
2018-02-14T01:29:54.668Z,6.37
2018-02-14T01:32:21.851Z,4.40
2018-02-14T01:34:48.653Z,3.58
2018-02-14T01:37:15.093Z,7.15
2018-02-14T01:39:41.558Z,5.03
2018-02-14T01:42:08.015Z,6.15
2018-02-14T01:44:34.621Z,2.12
2018-02-14T01:47:01.096Z,4.53
2018-02-14T01:49:27.612Z,5.10
2018-02-14T01:51:54.094Z,5.95
2018-02-14T01:54:21.261Z,4.28
2018-02-14T01:56:47.757Z,3.80
2018-02-14T01:59:14.252Z,5.97
2018-02-14T02:01:40.692Z,8.38
2018-02-14T02:04:07.229Z,4.05
2018-02-14T02:06:33.730Z,3.72
2018-02-14T02:09:00.240Z,6.30
2018-02-14T02:11:26.799Z,2.83
2018-02-14T02:13:53.191Z,3.42
2018-02-14T02:16:19.625Z,3.28
2018-02-14T02:18:46.166Z,4.60
2018-02-14T02:21:12.616Z,3.03
2018-02-14T02:23:39.099Z,3.60
2018-02-14T02:26:05.770Z,5.03
2018-02-14T02:28:32.244Z,3.15
2018-02-14T02:30:58.629Z,5.80
2018-02-14T02:33:25.062Z,4.60
2018-02-14T02:35:51.432Z,4.37
2018-02-14T02:38:17.824Z,4.10
2018-02-14T02:40:44.691Z,3.87
2018-02-14T02:43:11.096Z,4.53
2018-02-14T02:45:37.506Z,6.20
2018-02-14T02:48:04.065Z,4.20
2018-02-14T02:50:30.504Z,2.50
2018-02-14T02:52:56.904Z,3.90
2018-02-14T02:55:23.407Z,2.97
2018-02-14T02:57:49.833Z,7.55
2018-02-14T03:00:16.315Z,3.47
2018-02-14T03:22:49.217Z,2.28
2018-02-14T03:25:16.418Z,4.10
2018-02-14T03:27:42.892Z,4.70
2018-02-14T03:30:09.379Z,7.18
2018-02-14T03:32:35.828Z,4.80
2018-02-14T03:35:02.428Z,4.55
2018-02-14T03:37:28.866Z,2.70
2018-02-14T03:39:55.287Z,4.30
2018-02-14T03:42:22.507Z,3.42
2018-02-14T03:44:48.936Z,3.67
2018-02-14T03:47:15.439Z,5.97
2018-02-14T03:49:41.996Z,2.20
2018-02-14T03:52:08.669Z,4.35
2018-02-14T03:54:35.842Z,4.87
2018-02-14T03:57:03.036Z,4.10
2018-02-14T03:59:29.513Z,5.40
2018-02-14T04:01:56.705Z,13.93
2018-02-14T04:04:23.262Z,2.83
2018-02-14T04:06:49.758Z,4.72
2018-02-14T04:09:16.124Z,6.15
2018-02-14T04:11:49.433Z,3.72
2018-02-14T04:14:16.654Z,7.53
2018-02-14T04:16:43.120Z,5.37
2018-02-14T04:19:09.520Z,3.67
2018-02-14T04:21:35.988Z,2.55
2018-02-14T04:24:02.482Z,4.97
2018-02-14T04:26:28.923Z,2.30
2018-02-14T04:28:55.445Z,2.90
2018-02-14T04:31:21.877Z,5.30
2018-02-14T04:33:48.281Z,2.87
2018-02-14T04:36:14.773Z,4.53
2018-02-14T04:38:41.176Z,4.85
2018-02-14T04:41:07.642Z,4.68
2018-02-14T04:43:34.123Z,5.50
2018-02-14T04:46:01.280Z,3.15
2018-02-14T04:48:27.697Z,8.33
2018-02-14T04:50:54.150Z,2.15
2018-02-14T04:53:20.676Z,5.25
2018-02-14T04:55:47.085Z,5.43
2018-02-14T04:58:13.598Z,3.58
2018-02-14T05:00:40.057Z,4.30
2018-02-14T05:03:07.266Z,2.70
2018-02-14T05:05:33.812Z,3.33
2018-02-14T05:08:00.178Z,4.93
2018-02-14T05:10:26.568Z,6.78
2018-02-14T05:12:53.012Z,7.50
2018-02-14T05:15:19.417Z,2.97
2018-02-14T05:17:46.560Z,3.83
2018-02-14T05:20:13.778Z,7.35
2018-02-14T05:22:40.269Z,2.95
2018-02-14T05:25:06.718Z,2.28
2018-02-14T05:27:33.182Z,5.40
2018-02-14T05:29:59.637Z,5.18
2018-02-14T05:32:26.830Z,5.53
2018-02-14T05:34:53.368Z,3.85
2018-02-14T05:37:19.858Z,3.78
2018-02-14T05:39:47.074Z,2.73
2018-02-14T05:42:13.738Z,5.12
2018-02-14T05:44:40.168Z,3.83
2018-02-14T05:47:07.485Z,5.37
2018-02-14T05:49:33.916Z,4.35
2018-02-14T05:52:00.378Z,3.42
2018-02-14T05:54:26.783Z,3.90
2018-02-14T05:56:53.222Z,3.53
2018-02-14T05:59:19.642Z,5.07
2018-02-14T06:01:46.142Z,4.47
2018-02-14T06:04:12.609Z,4.68
2018-02-14T06:06:39.116Z,3.13
2018-02-14T06:09:06.265Z,6.30
2018-02-14T06:11:33.081Z,12.82
2018-02-14T06:13:59.545Z,3.67
2018-02-14T06:16:25.977Z,5.53
2018-02-14T06:18:53.210Z,4.37
2018-02-14T06:21:19.623Z,3.80
2018-02-14T06:23:46.146Z,7.27
2018-02-14T06:26:12.590Z,4.07
2018-02-14T06:28:39.187Z,4.63
2018-02-14T06:31:05.625Z,3.60
2018-02-14T06:33:32.568Z,8.17
2018-02-14T06:35:59.045Z,7.40
2018-02-14T06:38:26.263Z,3.62
2018-02-14T06:40:52.735Z,3.63
2018-02-14T06:43:19.194Z,5.07
2018-02-14T06:45:46.452Z,4.70
2018-02-14T06:48:13.664Z,3.87
2018-02-14T06:50:40.088Z,6.78
2018-02-14T06:53:06.567Z,4.65
2018-02-14T06:55:33.440Z,4.05
2018-02-14T06:57:59.984Z,7.57
2018-02-14T07:00:26.413Z,4.78
2018-02-14T07:02:53.023Z,5.87
2018-02-14T07:05:19.501Z,10.05
2018-02-14T07:07:47.073Z,5.60
2018-02-14T07:10:15.057Z,5.10
2018-02-14T07:12:41.583Z,6.62
2018-02-14T07:15:08.846Z,7.23
2018-02-14T07:17:35.393Z,6.32
2018-02-14T07:20:01.938Z,8.00
2018-02-14T07:22:28.401Z,4.23
2018-02-14T07:24:55.058Z,3.20
2018-02-14T07:27:21.554Z,5.60
2018-02-14T07:29:47.951Z,6.28
2018-02-14T07:32:14.492Z,3.40
2018-02-14T07:34:40.914Z,8.53
2018-02-14T07:37:07.372Z,5.60
2018-02-14T07:39:34.614Z,4.67
2018-02-14T07:42:01.162Z,6.20
2018-02-14T07:44:27.567Z,7.07
2018-02-14T07:46:54.100Z,4.23
2018-02-14T07:49:20.644Z,3.37
2018-02-14T07:51:47.066Z,6.17
2018-02-14T07:54:13.564Z,3.80
2018-02-14T07:56:40.789Z,5.27
2018-02-14T07:59:07.249Z,6.53
2018-02-14T08:01:34.044Z,6.37
2018-02-14T08:04:00.492Z,5.63
2018-02-14T08:06:26.908Z,3.47
2018-02-14T08:08:54.164Z,4.53
2018-02-14T08:11:20.548Z,4.73
2018-02-14T08:13:46.982Z,7.20
2018-02-14T08:16:13.502Z,8.33
2018-02-14T08:18:40.646Z,3.53
2018-02-14T08:21:07.049Z,5.10
2018-02-14T08:23:33.515Z,4.80
2018-02-14T08:25:59.993Z,5.77
2018-02-14T08:28:26.441Z,3.93
2018-02-14T08:30:52.902Z,5.70
2018-02-14T08:33:19.339Z,6.53
2018-02-14T08:35:45.767Z,4.13
2018-02-14T08:38:12.982Z,5.90
2018-02-14T08:40:39.446Z,4.27
2018-02-14T08:43:05.998Z,6.87
2018-02-14T08:45:32.560Z,4.53
2018-02-14T08:47:59.876Z,5.70
2018-02-14T08:50:26.340Z,7.10
2018-02-14T08:52:52.878Z,3.17
2018-02-14T08:55:19.346Z,6.43
2018-02-14T08:57:45.760Z,7.40
2018-02-14T09:00:12.943Z,13.27
2018-02-14T09:02:39.373Z,4.53
2018-02-14T09:05:05.765Z,8.80
2018-02-14T09:07:32.242Z,4.13
2018-02-14T09:09:58.671Z,6.17
2018-02-14T09:12:25.073Z,3.70
2018-02-14T09:14:52.261Z,6.27
2018-02-14T09:17:18.812Z,4.73
2018-02-14T09:19:45.312Z,6.07
2018-02-14T09:22:11.764Z,3.37
2018-02-14T09:24:38.291Z,7.60
2018-02-14T09:27:04.779Z,4.60
2018-02-14T09:29:31.253Z,3.63
2018-02-14T09:31:57.699Z,3.43
2018-02-14T09:34:24.092Z,3.37
2018-02-14T09:36:50.568Z,4.97
2018-02-14T09:39:16.953Z,3.93
2018-02-14T09:41:43.404Z,5.47
2018-02-14T09:44:10.613Z,8.33
2018-02-14T09:46:37.127Z,5.80
2018-02-14T09:49:03.682Z,2.67
2018-02-14T09:51:30.104Z,4.80
2018-02-14T09:53:56.607Z,5.97
2018-02-14T09:56:23.767Z,4.00
2018-02-14T09:58:50.250Z,4.60
2018-02-14T10:01:16.704Z,4.20
2018-02-14T10:03:43.127Z,3.90
2018-02-14T10:06:09.628Z,2.17
2018-02-14T10:08:36.068Z,2.80
2018-02-14T10:11:02.564Z,6.10
2018-02-14T10:13:29.780Z,4.03
2018-02-14T10:15:56.276Z,7.07
2018-02-14T10:18:22.751Z,5.73
2018-02-14T10:20:49.307Z,2.17
2018-02-14T10:23:15.780Z,5.90
2018-02-14T10:25:42.200Z,4.60
2018-02-14T10:28:08.988Z,2.13
2018-02-14T10:30:35.480Z,4.23
2018-02-14T10:33:01.984Z,3.70
2018-02-14T10:35:28.535Z,3.60
2018-02-14T10:37:54.993Z,7.50
2018-02-14T10:40:21.551Z,1.87
2018-02-14T10:42:48.879Z,4.60
2018-02-14T10:45:15.293Z,3.90
2018-02-14T10:47:42.602Z,2.97
2018-02-14T10:50:09.109Z,2.50
2018-02-14T10:52:35.517Z,3.23
2018-02-14T10:55:01.975Z,1.73
2018-02-14T10:57:28.449Z,1.70
2018-02-14T10:59:54.945Z,3.93
2018-02-14T11:02:21.496Z,2.57
2018-02-14T11:04:53.924Z,1.63
2018-02-14T11:07:21.110Z,2.93
2018-02-14T11:09:47.643Z,2.10
2018-02-14T11:12:14.157Z,1.17
2018-02-14T11:14:40.544Z,1.73
2018-02-14T11:17:06.960Z,1.37
2018-02-14T11:19:33.964Z,1.17
2018-02-14T11:22:00.395Z,2.93
2018-02-14T11:24:27.642Z,4.27
2018-02-14T11:26:54.869Z,2.97
2018-02-14T11:29:21.353Z,1.23
2018-02-14T11:31:47.730Z,1.90
2018-02-14T11:34:14.558Z,1.50
2018-02-14T11:36:41.006Z,1.23
2018-02-14T11:39:07.392Z,1.30
2018-02-14T11:41:34.372Z,1.60
2018-02-14T12:24:15.416Z,2.20
2018-02-14T12:26:41.851Z,2.33
2018-02-14T12:29:08.397Z,2.00
2018-02-14T12:31:35.173Z,1.63
2018-02-14T12:34:01.633Z,3.67
2018-02-14T12:36:28.857Z,1.73
2018-02-14T12:38:55.438Z,2.17
2018-02-14T12:41:21.904Z,2.13
2018-02-14T12:43:48.400Z,3.47
2018-02-14T12:46:14.968Z,3.77
2018-02-14T12:48:41.464Z,2.70
2018-02-14T12:51:08.051Z,4.20
2018-02-14T12:53:34.908Z,3.67
2018-02-14T12:56:02.315Z,4.07
2018-02-14T12:58:28.753Z,3.23
2018-02-14T13:00:55.671Z,1.90
2018-02-14T13:03:22.156Z,2.47
2018-02-14T13:05:48.684Z,2.37
2018-02-14T13:08:15.183Z,2.03
2018-02-14T13:10:42.467Z,2.40
2018-02-14T13:13:09.893Z,2.13
2018-02-14T13:15:36.319Z,2.93
2018-02-14T13:18:03.511Z,2.33
2018-02-14T13:20:29.949Z,3.37
2018-02-14T13:22:56.486Z,4.00
2018-02-14T13:25:23.196Z,4.00
2018-02-14T13:27:49.648Z,2.43
2018-02-14T13:30:16.203Z,6.87
2018-02-14T13:32:42.717Z,2.90
2018-02-14T13:35:09.211Z,3.27
2018-02-14T13:37:36.394Z,5.53
2018-02-14T13:40:02.972Z,3.13
2018-02-14T13:42:29.481Z,4.50
2018-02-14T13:44:56.046Z,2.53
2018-02-14T13:47:22.594Z,3.30
2018-02-14T13:49:49.872Z,2.40
2018-02-14T13:52:16.365Z,2.70
2018-02-14T13:54:42.872Z,2.00
2018-02-14T13:57:09.382Z,2.50
2018-02-14T13:59:35.856Z,1.77
2018-02-14T14:02:02.316Z,4.33
2018-02-14T14:04:28.781Z,4.27
2018-02-14T14:06:55.228Z,4.13
2018-02-14T14:09:21.764Z,1.97
2018-02-14T14:11:48.996Z,2.27
2018-02-14T14:14:15.541Z,1.70
2018-02-14T14:16:42.749Z,2.07
2018-02-14T14:19:09.275Z,3.60
2018-02-14T14:21:35.667Z,4.73
2018-02-14T14:24:02.194Z,1.83
2018-02-14T14:26:28.812Z,5.07
2018-02-14T14:28:55.473Z,3.43
2018-02-14T14:31:22.765Z,4.33
2018-02-14T14:33:49.266Z,2.10
2018-02-14T14:36:16.453Z,3.73
2018-02-14T14:38:42.909Z,3.47
2018-02-14T14:41:09.905Z,1.77
2018-02-14T14:43:36.305Z,3.90
2018-02-14T14:46:02.817Z,8.10
2018-02-14T14:48:29.281Z,4.83
2018-02-14T14:50:55.709Z,2.93
2018-02-14T14:53:22.418Z,4.20
2018-02-14T14:55:48.851Z,4.33
2018-02-14T14:58:16.012Z,4.13
2018-02-14T15:00:42.542Z,5.93
2018-02-14T15:03:09.010Z,3.97
2018-02-14T15:05:35.501Z,5.57
2018-02-14T15:08:01.957Z,2.60
2018-02-14T15:10:28.479Z,7.67
2018-02-14T15:12:55.011Z,3.40
2018-02-14T15:15:21.445Z,5.93
2018-02-14T15:17:48.111Z,2.50
2018-02-14T15:20:15.352Z,2.93
2018-02-14T15:22:41.835Z,3.50
2018-02-14T15:25:09.098Z,7.30
2018-02-14T15:27:36.301Z,2.97
2018-02-14T15:30:02.820Z,4.07
2018-02-14T15:32:29.328Z,5.50
2018-02-14T15:34:55.769Z,5.43
2018-02-14T15:37:22.336Z,3.07
2018-02-14T15:39:48.824Z,3.30
2018-02-14T15:42:15.284Z,7.77
2018-02-14T15:44:41.752Z,4.90
2018-02-14T15:47:08.267Z,6.17
2018-02-14T15:49:34.714Z,8.13
2018-02-14T15:52:01.181Z,4.33
2018-02-14T15:54:28.505Z,2.70
2018-02-14T15:56:54.993Z,5.33
2018-02-14T15:59:21.491Z,4.03
2018-02-14T16:01:49.136Z,3.83
2018-02-14T16:04:15.574Z,5.03
2018-02-14T16:06:42.202Z,5.53
2018-02-14T16:09:09.004Z,11.87
2018-02-14T16:11:36.565Z,4.87
2018-02-14T16:14:03.212Z,4.17
2018-02-14T16:16:30.035Z,7.83
2018-02-14T16:18:57.315Z,9.80
2018-02-14T16:21:24.416Z,2.53
2018-02-14T16:23:50.910Z,5.57
2018-02-14T16:26:17.337Z,3.37
2018-02-14T16:28:44.477Z,4.87
2018-02-14T16:31:12.153Z,5.87
2018-02-14T16:33:38.633Z,4.07
2018-02-14T16:36:05.599Z,5.30
2018-02-14T16:38:33.161Z,3.80
2018-02-14T16:41:00.544Z,3.70
2018-02-14T16:43:26.994Z,3.73
2018-02-14T16:45:54.071Z,3.67
2018-02-14T16:48:20.523Z,3.17
2018-02-14T16:50:47.026Z,3.27
2018-02-14T16:53:19.006Z,4.63
2018-02-14T16:55:52.563Z,4.97
2018-02-14T16:58:20.163Z,3.47
2018-02-14T17:00:47.020Z,5.53
2018-02-14T17:03:13.723Z,2.90
2018-02-14T17:05:41.200Z,2.80
2018-02-14T17:08:12.542Z,4.87
2018-02-14T17:10:40.326Z,4.23
2018-02-14T17:13:07.461Z,4.03
2018-02-14T17:15:35.301Z,5.67
2018-02-14T17:18:01.753Z,8.73
2018-02-14T17:20:28.284Z,7.87
2018-02-14T17:22:54.825Z,4.90
2018-02-14T17:25:21.226Z,7.40
2018-02-14T17:27:47.708Z,10.33
2018-02-14T17:30:14.266Z,3.23
2018-02-14T17:32:41.400Z,6.17
2018-02-14T17:35:07.917Z,7.60
2018-02-14T17:37:34.352Z,5.93
2018-02-14T17:40:00.796Z,4.60
2018-02-14T17:42:27.425Z,4.30
2018-02-14T17:44:53.870Z,4.67
2018-02-14T17:47:21.024Z,6.83
2018-02-14T17:49:47.493Z,6.10
2018-02-14T17:52:14.681Z,6.50
2018-02-14T17:54:41.072Z,5.87
2018-02-14T17:57:07.483Z,4.73
2018-02-14T17:59:34.651Z,4.83
2018-02-14T18:02:01.132Z,4.90
2018-02-14T18:04:27.980Z,5.23
2018-02-14T18:06:54.493Z,13.40
2018-02-14T18:09:20.908Z,7.67
2018-02-14T18:11:48.139Z,9.67
2018-02-14T18:14:14.706Z,16.20
2018-02-14T18:16:41.097Z,7.10
2018-02-14T18:19:07.693Z,11.80
2018-02-14T18:21:34.926Z,9.53
2018-02-14T18:24:02.077Z,8.87
2018-02-14T18:26:28.525Z,7.87
2018-02-14T18:28:54.961Z,6.43
2018-02-14T18:31:21.719Z,9.10
2018-02-14T18:33:48.163Z,6.65
2018-02-14T18:36:14.557Z,7.27
2018-02-14T18:38:41.005Z,9.70
2018-02-14T18:41:07.608Z,8.52
2018-02-14T18:43:34.823Z,6.97
2018-02-14T18:46:01.304Z,8.43
2018-02-14T18:48:28.436Z,6.90
2018-02-14T18:50:55.680Z,10.98
2018-02-14T18:53:23.549Z,11.60
2018-02-14T18:55:50.143Z,10.00
2018-02-14T18:58:16.645Z,9.10
2018-02-14T19:00:43.894Z,9.13
2018-02-14T19:03:11.162Z,6.35
2018-02-14T19:05:38.372Z,9.03
2018-02-14T19:08:04.885Z,16.35
2018-02-14T19:10:31.330Z,9.13
2018-02-14T19:12:57.794Z,10.23
2018-02-14T19:15:24.992Z,16.10
2018-02-14T19:17:51.457Z,7.37
2018-02-14T19:20:17.894Z,10.23
2018-02-14T19:22:44.457Z,8.67
2018-02-14T19:25:11.675Z,9.73
2018-02-14T19:27:38.176Z,8.23
2018-02-14T19:30:04.664Z,11.30
2018-02-14T19:32:31.237Z,10.13
2018-02-14T19:34:57.669Z,8.18
2018-02-14T19:37:24.160Z,10.50
2018-02-14T19:39:50.681Z,13.17
2018-02-14T19:42:17.078Z,10.43
2018-02-14T19:44:43.552Z,10.13
2018-02-14T19:47:09.990Z,15.93
2018-02-14T19:49:36.749Z,11.63
2018-02-14T19:52:03.499Z,9.80
2018-02-14T19:54:29.951Z,14.75
2018-02-14T19:56:56.428Z,10.30
2018-02-14T19:59:22.845Z,14.23
2018-02-14T20:01:49.232Z,8.20
2018-02-14T20:04:15.808Z,11.23
2018-02-14T20:06:42.616Z,10.75
2018-02-14T20:09:09.848Z,8.03
2018-02-14T20:11:36.330Z,9.85
2018-02-14T20:14:03.171Z,8.52
2018-02-14T20:16:29.654Z,10.40
2018-02-14T20:18:56.219Z,17.03
2018-02-14T20:21:23.518Z,12.93
2018-02-14T20:23:50.175Z,14.23
2018-02-14T20:26:18.562Z,15.60
2018-02-14T20:28:45.713Z,10.60
2018-02-14T20:33:45.633Z,10.03
2018-02-14T20:36:12.066Z,13.60
2018-02-14T20:38:38.508Z,11.23
2018-02-14T20:41:05.728Z,13.40
2018-02-14T20:43:32.513Z,15.43
2018-02-14T20:45:59.854Z,16.10
2018-02-14T20:48:33.769Z,13.88
2018-02-14T20:51:01.127Z,25.02
2018-02-14T20:53:27.611Z,14.82
2018-02-14T20:55:54.160Z,11.37
2018-02-14T20:58:20.649Z,14.75
2018-02-14T21:00:47.987Z,11.23
2018-02-14T21:03:15.160Z,12.98
2018-02-14T21:05:42.321Z,11.68
2018-02-14T21:08:16.785Z,13.90
2018-02-14T21:10:43.190Z,15.00
2018-02-14T21:13:09.856Z,16.00
2018-02-14T21:15:36.389Z,13.32
2018-02-14T21:18:02.929Z,15.25
2018-02-14T21:20:29.557Z,12.27
2018-02-14T21:22:56.104Z,12.48
2018-02-14T21:25:22.465Z,17.05
2018-02-14T21:27:48.965Z,14.70
2018-02-14T21:30:15.542Z,13.80
2018-02-14T21:32:41.972Z,14.73
2018-02-14T21:35:08.504Z,15.40
2018-02-14T21:37:35.025Z,19.07
2018-02-14T21:40:01.481Z,17.27
2018-02-14T21:42:27.976Z,15.15
2018-02-14T21:44:55.344Z,15.82
2018-02-14T21:47:21.773Z,18.27
2018-02-14T21:49:48.200Z,15.50
2018-02-14T21:52:15.376Z,13.90
2018-02-14T21:54:41.834Z,17.37
2018-02-14T21:57:08.246Z,19.87
2018-02-14T21:59:34.735Z,15.70
2018-02-14T22:02:01.259Z,18.00
2018-02-14T22:04:27.664Z,15.52
2018-02-14T22:06:54.699Z,11.93
2018-02-14T22:09:21.195Z,15.27
2018-02-14T22:11:47.652Z,13.73
2018-02-14T22:14:14.504Z,13.60
2018-02-14T22:16:40.902Z,18.55
2018-02-14T22:19:08.051Z,14.63
2018-02-14T22:21:34.556Z,14.57
2018-02-14T22:24:00.980Z,11.75
2018-02-14T22:26:27.625Z,13.93
2018-02-14T22:28:54.909Z,12.80
2018-02-14T22:31:21.440Z,15.52
2018-02-14T22:33:48.113Z,13.13
2018-02-14T22:36:14.773Z,19.33
2018-02-14T22:38:41.378Z,11.75
2018-02-14T22:41:07.825Z,16.52
2018-02-14T22:43:34.321Z,11.63
2018-02-14T22:46:01.448Z,10.10
2018-02-14T22:48:27.846Z,13.70
2018-02-14T22:51:00.403Z,10.63
2018-02-14T22:53:26.887Z,14.07
2018-02-14T22:55:53.300Z,10.55
2018-02-14T22:58:20.128Z,11.98
2018-02-14T23:00:46.570Z,14.25
2018-02-14T23:03:13.012Z,16.77
2018-02-14T23:05:39.815Z,11.63
2018-02-14T23:08:06.241Z,14.73
2018-02-14T23:10:32.774Z,14.30
2018-02-14T23:12:59.255Z,10.60
2018-02-14T23:15:25.768Z,15.38
2018-02-14T23:17:52.188Z,16.40
2018-02-14T23:20:19.460Z,11.75
2018-02-14T23:22:45.996Z,17.67
2018-02-14T23:25:12.449Z,12.93
2018-02-14T23:27:39.019Z,15.35
2018-02-14T23:30:05.451Z,14.93
2018-02-14T23:32:31.963Z,15.35
2018-02-14T23:34:58.764Z,15.27
2018-02-14T23:37:25.239Z,13.73
2018-02-14T23:39:51.679Z,13.45
2018-02-14T23:42:18.152Z,14.48
2018-02-14T23:44:44.700Z,13.52
2018-02-14T23:47:11.256Z,15.45
2018-02-14T23:49:37.783Z,17.50
2018-02-14T23:52:04.398Z,18.60
2018-02-14T23:54:30.821Z,15.05
2018-02-14T23:56:57.378Z,15.65
2018-02-14T23:59:23.799Z,13.10
